sensor_id;sensor_type;location;lat;lon;timestamp;P1;durP1;ratioP1;P2;durP2;ratioP2
35506;SDS011;36461;52.018;21.036;2023-06-22T00:01:28;28.70;;;25.90;;
35506;SDS011;36461;52.018;21.036;2023-06-22T00:03:57;25.60;;;23.20;;
35506;SDS011;36461;52.018;21.036;2023-06-22T00:06:25;27.50;;;24.80;;
35506;SDS011;36461;52.018;21.036;2023-06-22T00:08:53;28.00;;;25.50;;
35506;SDS011;36461;52.018;21.036;2023-06-22T00:11:21;28.00;;;25.40;;
35506;SDS011;36461;52.018;21.036;2023-06-22T00:13:49;28.00;;;25.30;;
35506;SDS011;36461;52.018;21.036;2023-06-22T00:16:19;27.00;;;24.50;;
35506;SDS011;36461;52.018;21.036;2023-06-22T00:18:47;27.10;;;24.30;;
35506;SDS011;36461;52.018;21.036;2023-06-22T00:21:16;26.80;;;24.20;;
35506;SDS011;36461;52.018;21.036;2023-06-22T00:23:44;26.70;;;24.20;;
35506;SDS011;36461;52.018;21.036;2023-06-22T00:26:13;28.10;;;25.40;;
35506;SDS011;36461;52.018;21.036;2023-06-22T00:28:41;26.70;;;24.10;;
35506;SDS011;36461;52.018;21.036;2023-06-22T00:31:10;26.20;;;23.60;;
35506;SDS011;36461;52.018;21.036;2023-06-22T00:33:38;26.20;;;23.70;;
35506;SDS011;36461;52.018;21.036;2023-06-22T00:36:06;27.20;;;24.70;;
35506;SDS011;36461;52.018;21.036;2023-06-22T00:38:37;26.40;;;24.00;;
35506;SDS011;36461;52.018;21.036;2023-06-22T00:41:09;27.10;;;24.50;;
35506;SDS011;36461;52.018;21.036;2023-06-22T00:43:37;25.20;;;22.80;;
35506;SDS011;36461;52.018;21.036;2023-06-22T00:46:05;26.20;;;23.80;;
35506;SDS011;36461;52.018;21.036;2023-06-22T00:48:33;25.80;;;23.30;;
35506;SDS011;36461;52.018;21.036;2023-06-22T00:51:04;26.90;;;24.50;;
35506;SDS011;36461;52.018;21.036;2023-06-22T00:53:33;25.10;;;22.90;;
35506;SDS011;36461;52.018;21.036;2023-06-22T00:56:03;27.30;;;24.80;;
35506;SDS011;36461;52.018;21.036;2023-06-22T00:58:36;25.90;;;23.40;;
35506;SDS011;36461;52.018;21.036;2023-06-22T01:01:04;25.70;;;23.20;;
35506;SDS011;36461;52.018;21.036;2023-06-22T01:03:33;25.10;;;22.80;;
35506;SDS011;36461;52.018;21.036;2023-06-22T01:06:07;25.30;;;22.70;;
35506;SDS011;36461;52.018;21.036;2023-06-22T01:08:46;25.80;;;23.40;;
35506;SDS011;36461;52.018;21.036;2023-06-22T01:11:25;25.40;;;23.00;;
35506;SDS011;36461;52.018;21.036;2023-06-22T01:13:59;25.80;;;23.50;;
35506;SDS011;36461;52.018;21.036;2023-06-22T01:16:31;26.10;;;23.40;;
35506;SDS011;36461;52.018;21.036;2023-06-22T01:19:09;24.20;;;21.80;;
35506;SDS011;36461;52.018;21.036;2023-06-22T01:21:43;26.40;;;23.90;;
35506;SDS011;36461;52.018;21.036;2023-06-22T01:24:23;26.10;;;23.40;;
35506;SDS011;36461;52.018;21.036;2023-06-22T01:27:12;27.30;;;24.80;;
35506;SDS011;36461;52.018;21.036;2023-06-22T01:29:53;26.50;;;24.10;;
35506;SDS011;36461;52.018;21.036;2023-06-22T01:32:32;26.20;;;23.50;;
35506;SDS011;36461;52.018;21.036;2023-06-22T01:35:03;25.80;;;23.50;;
35506;SDS011;36461;52.018;21.036;2023-06-22T01:37:34;26.00;;;23.40;;
35506;SDS011;36461;52.018;21.036;2023-06-22T01:40:07;27.10;;;24.40;;
35506;SDS011;36461;52.018;21.036;2023-06-22T01:42:36;25.70;;;23.20;;
35506;SDS011;36461;52.018;21.036;2023-06-22T01:45:07;26.50;;;24.00;;
35506;SDS011;36461;52.018;21.036;2023-06-22T01:47:38;24.60;;;22.30;;
35506;SDS011;36461;52.018;21.036;2023-06-22T01:50:07;24.60;;;22.20;;
35506;SDS011;36461;52.018;21.036;2023-06-22T01:52:37;23.50;;;21.30;;
35506;SDS011;36461;52.018;21.036;2023-06-22T01:55:05;22.60;;;20.40;;
35506;SDS011;36461;52.018;21.036;2023-06-22T01:57:35;23.00;;;20.70;;
35506;SDS011;36461;52.018;21.036;2023-06-22T02:00:07;24.20;;;21.90;;
35506;SDS011;36461;52.018;21.036;2023-06-22T02:05:33;21.50;;;19.40;;
35506;SDS011;36461;52.018;21.036;2023-06-22T02:08:07;22.60;;;20.30;;
35506;SDS011;36461;52.018;21.036;2023-06-22T02:10:38;22.20;;;20.10;;
35506;SDS011;36461;52.018;21.036;2023-06-22T02:13:09;22.00;;;19.90;;
35506;SDS011;36461;52.018;21.036;2023-06-22T02:15:38;21.60;;;19.60;;
35506;SDS011;36461;52.018;21.036;2023-06-22T02:18:07;22.20;;;20.00;;
35506;SDS011;36461;52.018;21.036;2023-06-22T02:20:36;26.00;;;23.60;;
35506;SDS011;36461;52.018;21.036;2023-06-22T02:23:06;25.40;;;22.80;;
35506;SDS011;36461;52.018;21.036;2023-06-22T02:25:35;25.00;;;22.70;;
35506;SDS011;36461;52.018;21.036;2023-06-22T02:28:04;24.80;;;22.40;;
35506;SDS011;36461;52.018;21.036;2023-06-22T02:30:32;24.00;;;21.70;;
35506;SDS011;36461;52.018;21.036;2023-06-22T02:33:00;23.50;;;21.20;;
35506;SDS011;36461;52.018;21.036;2023-06-22T02:35:29;22.70;;;20.50;;
35506;SDS011;36461;52.018;21.036;2023-06-22T02:37:59;21.80;;;19.70;;
35506;SDS011;36461;52.018;21.036;2023-06-22T02:40:29;20.30;;;18.40;;
35506;SDS011;36461;52.018;21.036;2023-06-22T02:42:58;20.70;;;18.80;;
35506;SDS011;36461;52.018;21.036;2023-06-22T02:45:31;21.60;;;19.60;;
35506;SDS011;36461;52.018;21.036;2023-06-22T02:47:59;23.10;;;20.70;;
35506;SDS011;36461;52.018;21.036;2023-06-22T02:50:28;23.70;;;21.40;;
35506;SDS011;36461;52.018;21.036;2023-06-22T02:52:58;24.70;;;20.30;;
35506;SDS011;36461;52.018;21.036;2023-06-22T02:55:29;21.70;;;19.80;;
35506;SDS011;36461;52.018;21.036;2023-06-22T02:57:59;23.30;;;19.10;;
35506;SDS011;36461;52.018;21.036;2023-06-22T03:00:29;21.90;;;19.70;;
35506;SDS011;36461;52.018;21.036;2023-06-22T03:02:59;23.10;;;20.20;;
35506;SDS011;36461;52.018;21.036;2023-06-22T03:05:28;22.70;;;20.40;;
35506;SDS011;36461;52.018;21.036;2023-06-22T03:07:58;22.20;;;20.10;;
35506;SDS011;36461;52.018;21.036;2023-06-22T03:10:27;24.70;;;22.30;;
35506;SDS011;36461;52.018;21.036;2023-06-22T03:12:56;24.30;;;21.90;;
35506;SDS011;36461;52.018;21.036;2023-06-22T03:15:24;24.10;;;21.80;;
35506;SDS011;36461;52.018;21.036;2023-06-22T03:17:53;27.50;;;24.90;;
35506;SDS011;36461;52.018;21.036;2023-06-22T03:20:23;32.80;;;29.40;;
35506;SDS011;36461;52.018;21.036;2023-06-22T03:22:51;36.70;;;31.60;;
35506;SDS011;36461;52.018;21.036;2023-06-22T03:25:20;36.40;;;32.50;;
35506;SDS011;36461;52.018;21.036;2023-06-22T03:27:49;36.00;;;32.40;;
35506;SDS011;36461;52.018;21.036;2023-06-22T03:30:17;37.70;;;33.90;;
35506;SDS011;36461;52.018;21.036;2023-06-22T03:32:46;36.30;;;32.70;;
35506;SDS011;36461;52.018;21.036;2023-06-22T03:35:15;37.20;;;33.50;;
35506;SDS011;36461;52.018;21.036;2023-06-22T03:37:43;37.60;;;33.70;;
35506;SDS011;36461;52.018;21.036;2023-06-22T03:40:11;37.80;;;33.90;;
35506;SDS011;36461;52.018;21.036;2023-06-22T03:42:40;38.00;;;34.10;;
35506;SDS011;36461;52.018;21.036;2023-06-22T03:45:09;40.50;;;36.30;;
35506;SDS011;36461;52.018;21.036;2023-06-22T03:47:38;43.40;;;38.90;;
35506;SDS011;36461;52.018;21.036;2023-06-22T03:50:07;41.20;;;37.00;;
35506;SDS011;36461;52.018;21.036;2023-06-22T03:52:36;43.80;;;38.30;;
35506;SDS011;36461;52.018;21.036;2023-06-22T03:55:04;41.20;;;37.00;;
35506;SDS011;36461;52.018;21.036;2023-06-22T03:57:33;42.50;;;38.10;;
35506;SDS011;36461;52.018;21.036;2023-06-22T04:00:01;41.20;;;36.90;;
35506;SDS011;36461;52.018;21.036;2023-06-22T04:02:38;42.20;;;37.70;;
35506;SDS011;36461;52.018;21.036;2023-06-22T04:05:08;42.00;;;37.40;;
35506;SDS011;36461;52.018;21.036;2023-06-22T04:07:37;42.30;;;37.80;;
35506;SDS011;36461;52.018;21.036;2023-06-22T04:10:05;41.10;;;36.80;;
35506;SDS011;36461;52.018;21.036;2023-06-22T04:12:35;43.80;;;39.30;;
35506;SDS011;36461;52.018;21.036;2023-06-22T04:15:03;42.80;;;38.30;;
35506;SDS011;36461;52.018;21.036;2023-06-22T04:17:31;42.60;;;38.10;;
35506;SDS011;36461;52.018;21.036;2023-06-22T04:19:59;43.70;;;38.90;;
35506;SDS011;36461;52.018;21.036;2023-06-22T04:22:27;39.90;;;35.70;;
35506;SDS011;36461;52.018;21.036;2023-06-22T04:24:55;45.30;;;40.40;;
35506;SDS011;36461;52.018;21.036;2023-06-22T04:27:24;41.90;;;37.50;;
35506;SDS011;36461;52.018;21.036;2023-06-22T04:29:52;41.40;;;37.00;;
35506;SDS011;36461;52.018;21.036;2023-06-22T04:32:20;41.50;;;37.20;;
35506;SDS011;36461;52.018;21.036;2023-06-22T04:34:48;42.10;;;37.50;;
35506;SDS011;36461;52.018;21.036;2023-06-22T04:37:16;40.30;;;36.20;;
35506;SDS011;36461;52.018;21.036;2023-06-22T04:39:44;38.30;;;34.20;;
35506;SDS011;36461;52.018;21.036;2023-06-22T04:42:12;38.20;;;34.20;;
35506;SDS011;36461;52.018;21.036;2023-06-22T04:44:40;40.30;;;35.90;;
35506;SDS011;36461;52.018;21.036;2023-06-22T04:47:10;40.70;;;36.40;;
35506;SDS011;36461;52.018;21.036;2023-06-22T04:49:38;39.30;;;35.30;;
35506;SDS011;36461;52.018;21.036;2023-06-22T04:52:08;38.60;;;34.60;;
35506;SDS011;36461;52.018;21.036;2023-06-22T04:54:37;37.80;;;33.90;;
35506;SDS011;36461;52.018;21.036;2023-06-22T04:57:07;36.80;;;33.00;;
35506;SDS011;36461;52.018;21.036;2023-06-22T04:59:39;37.50;;;33.60;;
35506;SDS011;36461;52.018;21.036;2023-06-22T05:02:09;38.30;;;34.20;;
35506;SDS011;36461;52.018;21.036;2023-06-22T05:04:38;37.00;;;33.10;;
35506;SDS011;36461;52.018;21.036;2023-06-22T05:07:09;36.80;;;32.80;;
35506;SDS011;36461;52.018;21.036;2023-06-22T05:09:37;35.20;;;31.60;;
35506;SDS011;36461;52.018;21.036;2023-06-22T05:12:05;35.30;;;31.70;;
35506;SDS011;36461;52.018;21.036;2023-06-22T05:14:37;36.70;;;32.80;;
35506;SDS011;36461;52.018;21.036;2023-06-22T05:17:05;36.70;;;33.00;;
35506;SDS011;36461;52.018;21.036;2023-06-22T05:19:43;35.30;;;31.60;;
35506;SDS011;36461;52.018;21.036;2023-06-22T05:22:12;33.60;;;30.20;;
35506;SDS011;36461;52.018;21.036;2023-06-22T05:24:41;33.80;;;30.40;;
35506;SDS011;36461;52.018;21.036;2023-06-22T05:27:10;32.70;;;29.50;;
35506;SDS011;36461;52.018;21.036;2023-06-22T05:29:38;33.30;;;30.00;;
35506;SDS011;36461;52.018;21.036;2023-06-22T05:32:07;33.70;;;30.00;;
35506;SDS011;36461;52.018;21.036;2023-06-22T05:34:35;30.80;;;27.80;;
35506;SDS011;36461;52.018;21.036;2023-06-22T05:37:03;32.30;;;29.00;;
35506;SDS011;36461;52.018;21.036;2023-06-22T05:39:31;32.10;;;28.90;;
35506;SDS011;36461;52.018;21.036;2023-06-22T05:41:59;31.60;;;28.40;;
35506;SDS011;36461;52.018;21.036;2023-06-22T05:44:27;32.40;;;29.10;;
35506;SDS011;36461;52.018;21.036;2023-06-22T05:46:55;33.70;;;30.00;;
35506;SDS011;36461;52.018;21.036;2023-06-22T05:49:23;31.60;;;28.20;;
35506;SDS011;36461;52.018;21.036;2023-06-22T05:51:52;31.00;;;27.80;;
35506;SDS011;36461;52.018;21.036;2023-06-22T05:54:20;30.20;;;27.20;;
35506;SDS011;36461;52.018;21.036;2023-06-22T05:56:48;30.00;;;26.90;;
35506;SDS011;36461;52.018;21.036;2023-06-22T05:59:16;30.20;;;27.10;;
35506;SDS011;36461;52.018;21.036;2023-06-22T06:01:44;29.40;;;26.30;;
35506;SDS011;36461;52.018;21.036;2023-06-22T06:04:12;28.70;;;25.80;;
35506;SDS011;36461;52.018;21.036;2023-06-22T06:06:40;28.50;;;25.70;;
35506;SDS011;36461;52.018;21.036;2023-06-22T06:09:09;28.30;;;25.40;;
35506;SDS011;36461;52.018;21.036;2023-06-22T06:11:37;29.00;;;25.90;;
35506;SDS011;36461;52.018;21.036;2023-06-22T06:14:05;29.60;;;26.80;;
35506;SDS011;36461;52.018;21.036;2023-06-22T06:16:33;27.40;;;24.80;;
35506;SDS011;36461;52.018;21.036;2023-06-22T06:19:01;28.30;;;25.40;;
35506;SDS011;36461;52.018;21.036;2023-06-22T06:21:29;27.70;;;25.00;;
35506;SDS011;36461;52.018;21.036;2023-06-22T06:23:58;26.20;;;23.50;;
35506;SDS011;36461;52.018;21.036;2023-06-22T06:26:26;26.90;;;24.10;;
35506;SDS011;36461;52.018;21.036;2023-06-22T06:28:57;28.60;;;25.70;;
35506;SDS011;36461;52.018;21.036;2023-06-22T06:31:25;26.10;;;23.60;;
35506;SDS011;36461;52.018;21.036;2023-06-22T06:33:56;25.70;;;23.10;;
35506;SDS011;36461;52.018;21.036;2023-06-22T06:40:59;25.00;;;22.70;;
35506;SDS011;36461;52.018;21.036;2023-06-22T06:43:27;22.90;;;20.70;;
35506;SDS011;36461;52.018;21.036;2023-06-22T06:45:55;22.40;;;20.10;;
35506;SDS011;36461;52.018;21.036;2023-06-22T06:48:23;22.70;;;20.50;;
35506;SDS011;36461;52.018;21.036;2023-06-22T06:50:51;21.10;;;18.90;;
35506;SDS011;36461;52.018;21.036;2023-06-22T06:53:19;21.10;;;18.90;;
35506;SDS011;36461;52.018;21.036;2023-06-22T06:55:47;19.90;;;17.90;;
35506;SDS011;36461;52.018;21.036;2023-06-22T06:58:15;19.90;;;18.00;;
35506;SDS011;36461;52.018;21.036;2023-06-22T07:00:43;19.80;;;17.60;;
35506;SDS011;36461;52.018;21.036;2023-06-22T07:03:11;19.10;;;17.30;;
35506;SDS011;36461;52.018;21.036;2023-06-22T07:05:40;19.70;;;17.90;;
35506;SDS011;36461;52.018;21.036;2023-06-22T07:08:08;20.60;;;18.70;;
35506;SDS011;36461;52.018;21.036;2023-06-22T07:10:36;19.70;;;17.90;;
35506;SDS011;36461;52.018;21.036;2023-06-22T07:13:04;19.00;;;17.10;;
35506;SDS011;36461;52.018;21.036;2023-06-22T07:15:31;20.00;;;17.90;;
35506;SDS011;36461;52.018;21.036;2023-06-22T07:17:59;19.20;;;17.30;;
35506;SDS011;36461;52.018;21.036;2023-06-22T07:20:27;17.10;;;15.40;;
35506;SDS011;36461;52.018;21.036;2023-06-22T07:22:56;16.70;;;15.00;;
35506;SDS011;36461;52.018;21.036;2023-06-22T07:25:25;16.90;;;15.20;;
35506;SDS011;36461;52.018;21.036;2023-06-22T07:27:57;16.20;;;14.50;;
35506;SDS011;36461;52.018;21.036;2023-06-22T07:30:29;15.90;;;14.40;;
35506;SDS011;36461;52.018;21.036;2023-06-22T07:32:59;14.90;;;13.50;;
35506;SDS011;36461;52.018;21.036;2023-06-22T07:35:32;15.20;;;13.70;;
35506;SDS011;36461;52.018;21.036;2023-06-22T07:38:00;13.30;;;11.90;;
35506;SDS011;36461;52.018;21.036;2023-06-22T07:40:32;13.00;;;10.90;;
35506;SDS011;36461;52.018;21.036;2023-06-22T07:43:02;11.70;;;10.20;;
35506;SDS011;36461;52.018;21.036;2023-06-22T07:45:31;11.70;;;10.60;;
35506;SDS011;36461;52.018;21.036;2023-06-22T07:48:02;11.50;;;10.20;;
35506;SDS011;36461;52.018;21.036;2023-06-22T07:50:30;10.20;;;9.20;;
35506;SDS011;36461;52.018;21.036;2023-06-22T07:52:59;9.40;;;8.40;;
35506;SDS011;36461;52.018;21.036;2023-06-22T07:55:27;8.50;;;7.60;;
35506;SDS011;36461;52.018;21.036;2023-06-22T07:57:56;11.60;;;8.20;;
35506;SDS011;36461;52.018;21.036;2023-06-22T08:00:24;11.30;;;8.60;;
35506;SDS011;36461;52.018;21.036;2023-06-22T08:02:52;12.70;;;7.70;;
35506;SDS011;36461;52.018;21.036;2023-06-22T08:05:20;8.80;;;6.80;;
35506;SDS011;36461;52.018;21.036;2023-06-22T08:08:02;7.90;;;7.20;;
35506;SDS011;36461;52.018;21.036;2023-06-22T08:10:30;9.30;;;6.80;;
35506;SDS011;36461;52.018;21.036;2023-06-22T08:12:58;6.80;;;6.10;;
35506;SDS011;36461;52.018;21.036;2023-06-22T08:15:26;7.70;;;6.70;;
35506;SDS011;36461;52.018;21.036;2023-06-22T08:17:56;9.00;;;6.90;;
35506;SDS011;36461;52.018;21.036;2023-06-22T08:20:25;6.80;;;6.10;;
35506;SDS011;36461;52.018;21.036;2023-06-22T08:22:54;9.30;;;6.00;;
35506;SDS011;36461;52.018;21.036;2023-06-22T08:25:23;7.90;;;5.80;;
35506;SDS011;36461;52.018;21.036;2023-06-22T08:27:51;8.10;;;6.20;;
35506;SDS011;36461;52.018;21.036;2023-06-22T08:30:19;6.40;;;5.30;;
35506;SDS011;36461;52.018;21.036;2023-06-22T08:32:47;5.90;;;5.30;;
35506;SDS011;36461;52.018;21.036;2023-06-22T08:35:15;5.90;;;5.30;;
35506;SDS011;36461;52.018;21.036;2023-06-22T08:37:43;6.30;;;5.70;;
35506;SDS011;36461;52.018;21.036;2023-06-22T08:40:19;5.70;;;5.00;;
35506;SDS011;36461;52.018;21.036;2023-06-22T08:42:48;5.90;;;5.30;;
35506;SDS011;36461;52.018;21.036;2023-06-22T08:45:16;5.30;;;4.80;;
35506;SDS011;36461;52.018;21.036;2023-06-22T08:47:44;6.40;;;5.20;;
35506;SDS011;36461;52.018;21.036;2023-06-22T08:50:12;7.80;;;4.90;;
35506;SDS011;36461;52.018;21.036;2023-06-22T08:52:40;6.80;;;5.00;;
35506;SDS011;36461;52.018;21.036;2023-06-22T08:55:09;7.20;;;5.40;;
35506;SDS011;36461;52.018;21.036;2023-06-22T08:57:38;5.50;;;5.00;;
35506;SDS011;36461;52.018;21.036;2023-06-22T09:00:07;6.40;;;4.70;;
35506;SDS011;36461;52.018;21.036;2023-06-22T09:02:44;7.40;;;4.30;;
35506;SDS011;36461;52.018;21.036;2023-06-22T09:09:45;5.30;;;3.70;;
35506;SDS011;36461;52.018;21.036;2023-06-22T09:16:48;4.60;;;3.70;;
35506;SDS011;36461;52.018;21.036;2023-06-22T09:19:16;4.70;;;3.70;;
35506;SDS011;36461;52.018;21.036;2023-06-22T09:21:45;5.90;;;4.20;;
35506;SDS011;36461;52.018;21.036;2023-06-22T09:24:13;4.20;;;3.80;;
35506;SDS011;36461;52.018;21.036;2023-06-22T09:26:41;4.80;;;3.70;;
35506;SDS011;36461;52.018;21.036;2023-06-22T09:29:10;4.80;;;3.40;;
35506;SDS011;36461;52.018;21.036;2023-06-22T09:31:38;5.40;;;3.60;;
35506;SDS011;36461;52.018;21.036;2023-06-22T09:34:06;4.70;;;3.70;;
35506;SDS011;36461;52.018;21.036;2023-06-22T09:36:34;4.00;;;3.30;;
35506;SDS011;36461;52.018;21.036;2023-06-22T09:39:02;6.40;;;3.30;;
35506;SDS011;36461;52.018;21.036;2023-06-22T09:41:34;3.90;;;3.50;;
35506;SDS011;36461;52.018;21.036;2023-06-22T09:44:02;4.30;;;3.40;;
35506;SDS011;36461;52.018;21.036;2023-06-22T09:46:30;7.40;;;4.10;;
35506;SDS011;36461;52.018;21.036;2023-06-22T09:48:58;4.30;;;3.60;;
35506;SDS011;36461;52.018;21.036;2023-06-22T09:51:26;5.90;;;3.90;;
35506;SDS011;36461;52.018;21.036;2023-06-22T09:53:55;3.60;;;3.30;;
35506;SDS011;36461;52.018;21.036;2023-06-22T10:00:58;3.80;;;3.40;;
35506;SDS011;36461;52.018;21.036;2023-06-22T10:03:26;3.20;;;2.90;;
35506;SDS011;36461;52.018;21.036;2023-06-22T10:10:44;3.80;;;3.20;;
35506;SDS011;36461;52.018;21.036;2023-06-22T10:13:13;3.50;;;3.00;;
35506;SDS011;36461;52.018;21.036;2023-06-22T10:15:41;4.90;;;3.00;;
35506;SDS011;36461;52.018;21.036;2023-06-22T10:18:09;4.40;;;3.10;;
35506;SDS011;36461;52.018;21.036;2023-06-22T10:20:37;4.90;;;3.60;;
35506;SDS011;36461;52.018;21.036;2023-06-22T10:23:05;4.40;;;3.10;;
35506;SDS011;36461;52.018;21.036;2023-06-22T10:25:33;3.90;;;3.10;;
35506;SDS011;36461;52.018;21.036;2023-06-22T10:32:37;5.10;;;3.10;;
35506;SDS011;36461;52.018;21.036;2023-06-22T10:35:06;3.50;;;3.20;;
35506;SDS011;36461;52.018;21.036;2023-06-22T10:37:35;4.00;;;3.20;;
35506;SDS011;36461;52.018;21.036;2023-06-22T10:40:03;4.20;;;3.40;;
35506;SDS011;36461;52.018;21.036;2023-06-22T10:42:32;4.40;;;3.20;;
35506;SDS011;36461;52.018;21.036;2023-06-22T10:45:01;3.40;;;3.10;;
35506;SDS011;36461;52.018;21.036;2023-06-22T10:47:33;3.50;;;3.00;;
35506;SDS011;36461;52.018;21.036;2023-06-22T10:50:06;3.60;;;3.30;;
35506;SDS011;36461;52.018;21.036;2023-06-22T10:52:38;3.90;;;3.50;;
35506;SDS011;36461;52.018;21.036;2023-06-22T10:55:11;4.40;;;3.10;;
35506;SDS011;36461;52.018;21.036;2023-06-22T10:57:41;5.00;;;3.40;;
35506;SDS011;36461;52.018;21.036;2023-06-22T11:00:14;3.70;;;3.30;;
35506;SDS011;36461;52.018;21.036;2023-06-22T11:02:47;4.60;;;3.60;;
35506;SDS011;36461;52.018;21.036;2023-06-22T11:05:18;5.50;;;3.40;;
35506;SDS011;36461;52.018;21.036;2023-06-22T11:07:50;5.70;;;3.70;;
35506;SDS011;36461;52.018;21.036;2023-06-22T11:10:22;6.80;;;3.50;;
35506;SDS011;36461;52.018;21.036;2023-06-22T11:12:53;6.90;;;3.70;;
35506;SDS011;36461;52.018;21.036;2023-06-22T11:15:26;3.80;;;3.40;;
35506;SDS011;36461;52.018;21.036;2023-06-22T11:17:58;3.80;;;3.20;;
35506;SDS011;36461;52.018;21.036;2023-06-22T11:20:29;4.00;;;3.00;;
35506;SDS011;36461;52.018;21.036;2023-06-22T11:23:00;3.60;;;3.20;;
35506;SDS011;36461;52.018;21.036;2023-06-22T11:25:32;5.00;;;3.50;;
35506;SDS011;36461;52.018;21.036;2023-06-22T11:30:39;4.10;;;3.40;;
35506;SDS011;36461;52.018;21.036;2023-06-22T11:33:10;5.70;;;3.80;;
35506;SDS011;36461;52.018;21.036;2023-06-22T11:35:41;6.90;;;4.10;;
35506;SDS011;36461;52.018;21.036;2023-06-22T11:38:12;6.40;;;3.70;;
35506;SDS011;36461;52.018;21.036;2023-06-22T11:40:43;4.90;;;4.20;;
35506;SDS011;36461;52.018;21.036;2023-06-22T11:43:14;7.80;;;4.60;;
35506;SDS011;36461;52.018;21.036;2023-06-22T11:53:17;4.60;;;4.00;;
35506;SDS011;36461;52.018;21.036;2023-06-22T11:55:46;4.30;;;3.80;;
35506;SDS011;36461;52.018;21.036;2023-06-22T11:58:14;4.70;;;3.90;;
35506;SDS011;36461;52.018;21.036;2023-06-22T12:00:42;3.90;;;3.50;;
35506;SDS011;36461;52.018;21.036;2023-06-22T12:03:18;7.20;;;4.00;;
35506;SDS011;36461;52.018;21.036;2023-06-22T12:05:47;4.20;;;3.80;;
35506;SDS011;36461;52.018;21.036;2023-06-22T12:08:16;7.20;;;4.10;;
35506;SDS011;36461;52.018;21.036;2023-06-22T12:10:44;6.00;;;3.90;;
35506;SDS011;36461;52.018;21.036;2023-06-22T12:13:12;6.10;;;3.90;;
35506;SDS011;36461;52.018;21.036;2023-06-22T12:15:40;4.40;;;4.00;;
35506;SDS011;36461;52.018;21.036;2023-06-22T12:18:09;5.10;;;4.20;;
35506;SDS011;36461;52.018;21.036;2023-06-22T12:20:37;5.60;;;3.90;;
35506;SDS011;36461;52.018;21.036;2023-06-22T12:23:05;5.00;;;4.20;;
35506;SDS011;36461;52.018;21.036;2023-06-22T12:25:33;5.20;;;4.10;;
35506;SDS011;36461;52.018;21.036;2023-06-22T12:28:01;5.70;;;3.60;;
35506;SDS011;36461;52.018;21.036;2023-06-22T12:30:30;5.80;;;4.00;;
35506;SDS011;36461;52.018;21.036;2023-06-22T12:33:00;8.10;;;4.50;;
35506;SDS011;36461;52.018;21.036;2023-06-22T12:35:28;7.50;;;4.50;;
35506;SDS011;36461;52.018;21.036;2023-06-22T12:37:56;5.00;;;4.00;;
35506;SDS011;36461;52.018;21.036;2023-06-22T12:40:24;5.40;;;3.50;;
35506;SDS011;36461;52.018;21.036;2023-06-22T12:42:52;4.20;;;3.80;;
35506;SDS011;36461;52.018;21.036;2023-06-22T12:45:21;5.80;;;3.80;;
35506;SDS011;36461;52.018;21.036;2023-06-22T12:47:49;5.20;;;4.50;;
35506;SDS011;36461;52.018;21.036;2023-06-22T12:50:18;6.00;;;4.30;;
35506;SDS011;36461;52.018;21.036;2023-06-22T12:52:46;4.60;;;3.80;;
35506;SDS011;36461;52.018;21.036;2023-06-22T12:55:14;4.20;;;3.70;;
35506;SDS011;36461;52.018;21.036;2023-06-22T12:57:42;5.90;;;4.00;;
35506;SDS011;36461;52.018;21.036;2023-06-22T13:00:11;4.00;;;3.60;;
35506;SDS011;36461;52.018;21.036;2023-06-22T13:02:39;6.20;;;4.10;;
35506;SDS011;36461;52.018;21.036;2023-06-22T13:05:08;4.20;;;3.60;;
35506;SDS011;36461;52.018;21.036;2023-06-22T13:07:36;5.90;;;4.00;;
35506;SDS011;36461;52.018;21.036;2023-06-22T13:10:06;7.80;;;3.70;;
35506;SDS011;36461;52.018;21.036;2023-06-22T13:12:34;4.40;;;3.60;;
35506;SDS011;36461;52.018;21.036;2023-06-22T13:15:03;3.80;;;3.40;;
35506;SDS011;36461;52.018;21.036;2023-06-22T13:17:31;4.20;;;3.60;;
35506;SDS011;36461;52.018;21.036;2023-06-22T13:19:59;4.40;;;3.80;;
35506;SDS011;36461;52.018;21.036;2023-06-22T13:22:31;4.00;;;3.40;;
35506;SDS011;36461;52.018;21.036;2023-06-22T13:25:00;5.20;;;4.40;;
35506;SDS011;36461;52.018;21.036;2023-06-22T13:27:30;5.00;;;4.10;;
35506;SDS011;36461;52.018;21.036;2023-06-22T13:29:58;6.00;;;3.60;;
35506;SDS011;36461;52.018;21.036;2023-06-22T13:32:26;4.90;;;3.30;;
35506;SDS011;36461;52.018;21.036;2023-06-22T13:34:54;5.30;;;3.90;;
35506;SDS011;36461;52.018;21.036;2023-06-22T13:37:22;5.10;;;4.50;;
35506;SDS011;36461;52.018;21.036;2023-06-22T13:39:50;6.60;;;4.40;;
35506;SDS011;36461;52.018;21.036;2023-06-22T13:42:18;4.90;;;4.10;;
35506;SDS011;36461;52.018;21.036;2023-06-22T13:44:46;4.90;;;3.80;;
35506;SDS011;36461;52.018;21.036;2023-06-22T13:47:14;3.50;;;3.20;;
35506;SDS011;36461;52.018;21.036;2023-06-22T13:49:43;3.90;;;3.50;;
35506;SDS011;36461;52.018;21.036;2023-06-22T13:52:11;5.20;;;3.70;;
35506;SDS011;36461;52.018;21.036;2023-06-22T13:54:40;5.10;;;3.70;;
35506;SDS011;36461;52.018;21.036;2023-06-22T13:57:08;8.10;;;3.80;;
35506;SDS011;36461;52.018;21.036;2023-06-22T13:59:36;4.80;;;3.10;;
35506;SDS011;36461;52.018;21.036;2023-06-22T14:02:05;3.50;;;3.10;;
35506;SDS011;36461;52.018;21.036;2023-06-22T14:04:34;3.80;;;3.40;;
35506;SDS011;36461;52.018;21.036;2023-06-22T14:07:02;3.70;;;3.30;;
35506;SDS011;36461;52.018;21.036;2023-06-22T14:09:30;5.60;;;3.70;;
35506;SDS011;36461;52.018;21.036;2023-06-22T14:12:02;4.20;;;3.80;;
35506;SDS011;36461;52.018;21.036;2023-06-22T14:17:03;3.40;;;3.00;;
35506;SDS011;36461;52.018;21.036;2023-06-22T14:19:32;4.30;;;3.30;;
35506;SDS011;36461;52.018;21.036;2023-06-22T14:22:00;4.00;;;3.40;;
35506;SDS011;36461;52.018;21.036;2023-06-22T14:24:28;3.40;;;3.10;;
35506;SDS011;36461;52.018;21.036;2023-06-22T14:26:57;4.00;;;3.50;;
35506;SDS011;36461;52.018;21.036;2023-06-22T14:29:26;5.40;;;3.50;;
35506;SDS011;36461;52.018;21.036;2023-06-22T14:31:54;6.30;;;3.20;;
35506;SDS011;36461;52.018;21.036;2023-06-22T14:34:22;4.00;;;3.30;;
35506;SDS011;36461;52.018;21.036;2023-06-22T14:36:50;4.50;;;3.10;;
35506;SDS011;36461;52.018;21.036;2023-06-22T14:39:18;3.50;;;3.10;;
35506;SDS011;36461;52.018;21.036;2023-06-22T14:41:48;4.30;;;3.40;;
35506;SDS011;36461;52.018;21.036;2023-06-22T14:44:16;4.50;;;3.50;;
35506;SDS011;36461;52.018;21.036;2023-06-22T14:46:44;3.70;;;3.30;;
35506;SDS011;36461;52.018;21.036;2023-06-22T14:49:12;5.10;;;3.50;;
35506;SDS011;36461;52.018;21.036;2023-06-22T14:51:41;5.00;;;3.60;;
35506;SDS011;36461;52.018;21.036;2023-06-22T14:54:09;7.40;;;3.70;;
35506;SDS011;36461;52.018;21.036;2023-06-22T14:56:37;5.00;;;3.90;;
35506;SDS011;36461;52.018;21.036;2023-06-22T14:59:05;4.20;;;3.80;;
35506;SDS011;36461;52.018;21.036;2023-06-22T15:01:34;4.50;;;3.70;;
35506;SDS011;36461;52.018;21.036;2023-06-22T15:04:02;4.60;;;3.90;;
35506;SDS011;36461;52.018;21.036;2023-06-22T15:06:31;4.90;;;3.90;;
35506;SDS011;36461;52.018;21.036;2023-06-22T15:08:59;4.50;;;3.90;;
35506;SDS011;36461;52.018;21.036;2023-06-22T15:11:27;4.10;;;3.60;;
35506;SDS011;36461;52.018;21.036;2023-06-22T15:13:58;4.30;;;3.90;;
35506;SDS011;36461;52.018;21.036;2023-06-22T15:16:27;5.10;;;3.90;;